sensor_id;sensor_type;location;lat;lon;timestamp;pressure;altitude;pressure_sealevel;temperature;humidity
10881;BME280;5493;48.884;8.338;2023-07-02T00:00:50;99685.09;;;19.40;100.00
10881;BME280;5493;48.884;8.338;2023-07-02T00:03:17;99682.41;;;19.59;100.00
10881;BME280;5493;48.884;8.338;2023-07-02T00:05:47;99689.16;;;19.67;100.00
10881;BME280;5493;48.884;8.338;2023-07-02T00:08:15;99680.63;;;19.68;100.00
10881;BME280;5493;48.884;8.338;2023-07-02T00:10:43;99680.94;;;19.67;100.00
10881;BME280;5493;48.884;8.338;2023-07-02T00:13:09;99689.63;;;19.74;100.00
10881;BME280;5493;48.884;8.338;2023-07-02T00:15:37;99691.59;;;19.68;100.00
10881;BME280;5493;48.884;8.338;2023-07-02T00:18:04;99692.25;;;19.79;100.00
10881;BME280;5493;48.884;8.338;2023-07-02T00:20:30;99685.59;;;19.66;100.00
10881;BME280;5493;48.884;8.338;2023-07-02T00:23:00;99686.94;;;19.69;100.00
10881;BME280;5493;48.884;8.338;2023-07-02T00:25:26;99683.72;;;19.85;100.00
10881;BME280;5493;48.884;8.338;2023-07-02T00:27:53;99684.88;;;19.79;100.00
10881;BME280;5493;48.884;8.338;2023-07-02T00:30:19;99689.63;;;19.74;100.00
10881;BME280;5493;48.884;8.338;2023-07-02T00:32:47;99695.53;;;19.81;100.00
10881;BME280;5493;48.884;8.338;2023-07-02T00:35:14;99702.19;;;19.93;100.00
10881;BME280;5493;48.884;8.338;2023-07-02T00:37:40;99699.09;;;20.00;100.00
10881;BME280;5493;48.884;8.338;2023-07-02T00:40:08;99692.00;;;19.99;100.00
10881;BME280;5493;48.884;8.338;2023-07-02T00:42:35;99693.84;;;19.85;100.00
10881;BME280;5493;48.884;8.338;2023-07-02T00:45:01;99696.34;;;19.81;100.00
10881;BME280;5493;48.884;8.338;2023-07-02T00:47:28;99686.94;;;19.87;100.00
10881;BME280;5493;48.884;8.338;2023-07-02T00:49:57;99691.38;;;19.83;100.00
10881;BME280;5493;48.884;8.338;2023-07-02T00:52:24;99683.53;;;19.77;100.00
10881;BME280;5493;48.884;8.338;2023-07-02T00:54:51;99693.81;;;19.66;100.00
10881;BME280;5493;48.884;8.338;2023-07-02T00:57:17;99689.84;;;19.77;100.00
10881;BME280;5493;48.884;8.338;2023-07-02T00:59:44;99688.13;;;19.81;100.00
10881;BME280;5493;48.884;8.338;2023-07-02T01:02:11;99691.59;;;19.68;100.00
10881;BME280;5493;48.884;8.338;2023-07-02T01:04:38;99693.31;;;19.83;100.00
10881;BME280;5493;48.884;8.338;2023-07-02T01:07:06;99695.81;;;19.60;100.00
10881;BME280;5493;48.884;8.338;2023-07-02T01:09:35;99696.72;;;19.75;100.00
10881;BME280;5493;48.884;8.338;2023-07-02T01:12:04;99695.22;;;19.63;100.00
10881;BME280;5493;48.884;8.338;2023-07-02T01:14:37;99700.16;;;19.61;100.00
10881;BME280;5493;48.884;8.338;2023-07-02T01:17:05;99701.19;;;19.65;100.00
10881;BME280;5493;48.884;8.338;2023-07-02T01:19:42;99696.03;;;19.64;100.00
10881;BME280;5493;48.884;8.338;2023-07-02T01:22:11;99703.94;;;19.65;100.00
10881;BME280;5493;48.884;8.338;2023-07-02T01:24:39;99713.13;;;19.75;100.00
10881;BME280;5493;48.884;8.338;2023-07-02T01:27:06;99695.09;;;19.50;100.00
10881;BME280;5493;48.884;8.338;2023-07-02T01:29:32;99698.59;;;19.55;100.00
10881;BME280;5493;48.884;8.338;2023-07-02T01:32:02;99707.63;;;19.56;100.00
10881;BME280;5493;48.884;8.338;2023-07-02T01:34:28;99702.00;;;19.66;100.00
10881;BME280;5493;48.884;8.338;2023-07-02T01:36:56;99707.31;;;19.57;100.00
10881;BME280;5493;48.884;8.338;2023-07-02T01:39:23;99705.72;;;19.75;100.00
10881;BME280;5493;48.884;8.338;2023-07-02T01:41:51;99708.53;;;19.70;100.00
10881;BME280;5493;48.884;8.338;2023-07-02T01:44:18;99718.72;;;19.64;100.00
10881;BME280;5493;48.884;8.338;2023-07-02T01:46:45;99718.47;;;19.61;100.00
10881;BME280;5493;48.884;8.338;2023-07-02T01:49:14;99716.34;;;19.58;100.00
10881;BME280;5493;48.884;8.338;2023-07-02T01:51:40;99718.56;;;19.56;100.00
10881;BME280;5493;48.884;8.338;2023-07-02T01:54:12;99724.09;;;19.51;100.00
10881;BME280;5493;48.884;8.338;2023-07-02T01:56:38;99719.44;;;19.51;100.00
10881;BME280;5493;48.884;8.338;2023-07-02T01:59:05;99718.38;;;19.47;100.00
10881;BME280;5493;48.884;8.338;2023-07-02T02:01:31;99724.16;;;19.46;100.00
10881;BME280;5493;48.884;8.338;2023-07-02T02:03:58;99729.66;;;19.41;100.00
10881;BME280;5493;48.884;8.338;2023-07-02T02:06:25;99726.81;;;19.51;100.00
10881;BME280;5493;48.884;8.338;2023-07-02T02:08:51;99733.00;;;19.33;100.00
10881;BME280;5493;48.884;8.338;2023-07-02T02:11:19;99727.19;;;19.39;100.00
10881;BME280;5493;48.884;8.338;2023-07-02T02:13:46;99729.91;;;19.39;100.00
10881;BME280;5493;48.884;8.338;2023-07-02T02:16:14;99733.91;;;18.99;100.00
10881;BME280;5493;48.884;8.338;2023-07-02T02:18:40;99733.84;;;19.04;100.00
10881;BME280;5493;48.884;8.338;2023-07-02T02:21:07;99726.34;;;19.20;100.00
10881;BME280;5493;48.884;8.338;2023-07-02T02:23:34;99732.31;;;19.22;100.00
10881;BME280;5493;48.884;8.338;2023-07-02T02:26:00;99726.78;;;19.27;100.00
10881;BME280;5493;48.884;8.338;2023-07-02T02:28:28;99733.81;;;19.09;100.00
10881;BME280;5493;48.884;8.338;2023-07-02T02:30:55;99736.94;;;19.22;100.00
10881;BME280;5493;48.884;8.338;2023-07-02T02:33:22;99732.41;;;19.12;100.00
10881;BME280;5493;48.884;8.338;2023-07-02T02:35:48;99737.59;;;19.13;100.00
10881;BME280;5493;48.884;8.338;2023-07-02T02:38:15;99737.84;;;19.17;100.00
10881;BME280;5493;48.884;8.338;2023-07-02T02:40:41;99740.66;;;19.07;100.00
10881;BME280;5493;48.884;8.338;2023-07-02T02:43:08;99723.03;;;18.94;100.00
10881;BME280;5493;48.884;8.338;2023-07-02T02:45:36;99745.47;;;18.91;100.00
10881;BME280;5493;48.884;8.338;2023-07-02T02:48:03;99746.69;;;18.75;100.00
10881;BME280;5493;48.884;8.338;2023-07-02T02:50:29;99749.41;;;18.80;100.00
10881;BME280;5493;48.884;8.338;2023-07-02T02:52:56;99747.31;;;18.96;100.00
10881;BME280;5493;48.884;8.338;2023-07-02T02:55:22;99737.69;;;19.03;100.00
10881;BME280;5493;48.884;8.338;2023-07-02T02:57:49;99739.28;;;19.09;100.00
10881;BME280;5493;48.884;8.338;2023-07-02T03:00:16;99737.09;;;19.06;100.00
10881;BME280;5493;48.884;8.338;2023-07-02T03:02:44;99736.88;;;19.03;100.00
10881;BME280;5493;48.884;8.338;2023-07-02T03:05:10;99735.59;;;18.95;100.00
10881;BME280;5493;48.884;8.338;2023-07-02T03:07:38;99737.41;;;18.76;100.00
10881;BME280;5493;48.884;8.338;2023-07-02T03:10:05;99738.41;;;18.85;100.00
10881;BME280;5493;48.884;8.338;2023-07-02T03:12:32;99741.47;;;18.79;100.00
10881;BME280;5493;48.884;8.338;2023-07-02T03:14:59;99741.19;;;18.80;100.00
10881;BME280;5493;48.884;8.338;2023-07-02T03:17:25;99743.25;;;18.93;100.00
10881;BME280;5493;48.884;8.338;2023-07-02T03:19:53;99746.22;;;18.97;100.00
10881;BME280;5493;48.884;8.338;2023-07-02T03:22:20;99758.50;;;18.99;100.00
10881;BME280;5493;48.884;8.338;2023-07-02T03:24:46;99754.63;;;19.05;100.00
10881;BME280;5493;48.884;8.338;2023-07-02T03:27:13;99751.22;;;18.90;100.00
10881;BME280;5493;48.884;8.338;2023-07-02T03:29:39;99758.59;;;18.89;100.00
10881;BME280;5493;48.884;8.338;2023-07-02T03:32:06;99758.94;;;18.83;100.00
10881;BME280;5493;48.884;8.338;2023-07-02T03:34:33;99758.72;;;18.74;100.00
10881;BME280;5493;48.884;8.338;2023-07-02T03:37:01;99765.78;;;18.80;100.00
10881;BME280;5493;48.884;8.338;2023-07-02T03:39:27;99764.41;;;18.78;100.00
10881;BME280;5493;48.884;8.338;2023-07-02T03:41:54;99756.91;;;18.64;100.00
10881;BME280;5493;48.884;8.338;2023-07-02T03:44:20;99758.88;;;18.59;100.00
10881;BME280;5493;48.884;8.338;2023-07-02T03:46:47;99766.28;;;18.48;100.00
10881;BME280;5493;48.884;8.338;2023-07-02T03:49:13;99774.13;;;18.60;100.00
10881;BME280;5493;48.884;8.338;2023-07-02T03:51:40;99773.69;;;18.43;100.00
10881;BME280;5493;48.884;8.338;2023-07-02T03:54:08;99778.56;;;18.51;100.00
10881;BME280;5493;48.884;8.338;2023-07-02T03:56:34;99781.00;;;18.52;100.00
10881;BME280;5493;48.884;8.338;2023-07-02T03:59:01;99773.03;;;18.61;100.00
10881;BME280;5493;48.884;8.338;2023-07-02T04:01:27;99777.72;;;18.55;100.00
10881;BME280;5493;48.884;8.338;2023-07-02T04:03:55;99779.91;;;18.53;100.00
10881;BME280;5493;48.884;8.338;2023-07-02T04:06:22;99782.66;;;18.48;100.00
10881;BME280;5493;48.884;8.338;2023-07-02T04:08:49;99783.75;;;18.47;100.00
10881;BME280;5493;48.884;8.338;2023-07-02T04:11:17;99797.47;;;18.37;100.00
10881;BME280;5493;48.884;8.338;2023-07-02T04:13:43;99793.03;;;18.51;100.00
10881;BME280;5493;48.884;8.338;2023-07-02T04:16:10;99792.72;;;18.58;100.00
10881;BME280;5493;48.884;8.338;2023-07-02T04:18:36;99796.91;;;18.40;100.00
10881;BME280;5493;48.884;8.338;2023-07-02T04:21:03;99801.47;;;18.55;100.00
10881;BME280;5493;48.884;8.338;2023-07-02T04:23:29;99810.44;;;18.60;100.00
10881;BME280;5493;48.884;8.338;2023-07-02T04:25:56;99815.41;;;18.53;100.00
10881;BME280;5493;48.884;8.338;2023-07-02T04:28:24;99813.34;;;18.74;100.00
10881;BME280;5493;48.884;8.338;2023-07-02T04:30:51;99814.97;;;18.75;100.00
10881;BME280;5493;48.884;8.338;2023-07-02T04:33:18;99818.97;;;18.54;100.00
10881;BME280;5493;48.884;8.338;2023-07-02T04:35:45;99825.28;;;18.44;100.00
10881;BME280;5493;48.884;8.338;2023-07-02T04:38:11;99824.84;;;18.71;100.00
10881;BME280;5493;48.884;8.338;2023-07-02T04:40:38;99818.84;;;18.69;100.00
10881;BME280;5493;48.884;8.338;2023-07-02T04:43:07;99825.06;;;18.80;100.00
10881;BME280;5493;48.884;8.338;2023-07-02T04:45:34;99823.50;;;18.68;100.00
10881;BME280;5493;48.884;8.338;2023-07-02T04:48:01;99819.84;;;18.83;100.00
10881;BME280;5493;48.884;8.338;2023-07-02T04:50:28;99824.22;;;18.84;100.00
10881;BME280;5493;48.884;8.338;2023-07-02T04:52:54;99815.56;;;18.72;100.00
10881;BME280;5493;48.884;8.338;2023-07-02T04:55:21;99835.97;;;18.80;100.00
10881;BME280;5493;48.884;8.338;2023-07-02T04:57:48;99832.06;;;18.91;100.00
10881;BME280;5493;48.884;8.338;2023-07-02T05:00:15;99825.81;;;18.85;100.00
10881;BME280;5493;48.884;8.338;2023-07-02T05:02:43;99831.28;;;18.85;100.00
10881;BME280;5493;48.884;8.338;2023-07-02T05:05:10;99835.72;;;19.10;100.00
10881;BME280;5493;48.884;8.338;2023-07-02T05:07:36;99834.16;;;19.04;100.00
10881;BME280;5493;48.884;8.338;2023-07-02T05:10:03;99837.19;;;19.02;100.00
10881;BME280;5493;48.884;8.338;2023-07-02T05:12:30;99845.88;;;18.71;100.00
10881;BME280;5493;48.884;8.338;2023-07-02T05:14:56;99853.56;;;19.02;100.00
10881;BME280;5493;48.884;8.338;2023-07-02T05:17:23;99851.59;;;19.08;100.00
10881;BME280;5493;48.884;8.338;2023-07-02T05:19:51;99850.31;;;19.29;100.00
10881;BME280;5493;48.884;8.338;2023-07-02T05:22:18;99852.13;;;19.10;100.00
10881;BME280;5493;48.884;8.338;2023-07-02T05:24:44;99845.56;;;19.11;100.00
10881;BME280;5493;48.884;8.338;2023-07-02T05:27:11;99850.66;;;19.23;100.00
10881;BME280;5493;48.884;8.338;2023-07-02T05:29:38;99853.91;;;19.25;100.00
10881;BME280;5493;48.884;8.338;2023-07-02T05:32:05;99845.88;;;19.09;100.00
10881;BME280;5493;48.884;8.338;2023-07-02T05:34:32;99852.56;;;19.22;100.00
10881;BME280;5493;48.884;8.338;2023-07-02T05:37:00;99851.47;;;19.23;100.00
10881;BME280;5493;48.884;8.338;2023-07-02T05:39:26;99861.72;;;19.36;100.00
10881;BME280;5493;48.884;8.338;2023-07-02T05:41:53;99856.38;;;19.26;100.00
10881;BME280;5493;48.884;8.338;2023-07-02T05:44:19;99860.88;;;19.41;100.00
10881;BME280;5493;48.884;8.338;2023-07-02T05:46:46;99861.66;;;19.46;100.00
10881;BME280;5493;48.884;8.338;2023-07-02T05:49:12;99859.84;;;19.65;100.00
10881;BME280;5493;48.884;8.338;2023-07-02T05:51:39;99863.19;;;19.57;100.00
10881;BME280;5493;48.884;8.338;2023-07-02T05:54:07;99867.69;;;19.72;100.00
10881;BME280;5493;48.884;8.338;2023-07-02T05:56:34;99860.28;;;19.49;100.00
10881;BME280;5493;48.884;8.338;2023-07-02T05:59:00;99863.47;;;19.27;100.00
10881;BME280;5493;48.884;8.338;2023-07-02T06:01:27;99870.25;;;19.35;100.00
10881;BME280;5493;48.884;8.338;2023-07-02T06:03:53;99883.53;;;19.75;100.00
10881;BME280;5493;48.884;8.338;2023-07-02T06:06:21;99870.03;;;19.84;100.00
10881;BME280;5493;48.884;8.338;2023-07-02T06:08:49;99877.50;;;20.02;100.00
10881;BME280;5493;48.884;8.338;2023-07-02T06:11:17;99876.13;;;20.28;100.00
10881;BME280;5493;48.884;8.338;2023-07-02T06:13:44;99870.28;;;20.35;100.00
10881;BME280;5493;48.884;8.338;2023-07-02T06:16:10;99876.50;;;20.96;100.00
10881;BME280;5493;48.884;8.338;2023-07-02T06:18:37;99879.38;;;21.24;100.00
10881;BME280;5493;48.884;8.338;2023-07-02T06:21:04;99877.22;;;21.99;100.00
10881;BME280;5493;48.884;8.338;2023-07-02T06:23:39;99880.69;;;22.32;100.00
10881;BME280;5493;48.884;8.338;2023-07-02T06:26:06;99883.28;;;22.64;100.00
10881;BME280;5493;48.884;8.338;2023-07-02T06:28:34;99871.28;;;22.46;100.00
10881;BME280;5493;48.884;8.338;2023-07-02T06:31:00;99884.09;;;22.51;100.00
10881;BME280;5493;48.884;8.338;2023-07-02T06:33:27;99873.56;;;22.80;100.00
10881;BME280;5493;48.884;8.338;2023-07-02T06:35:53;99891.13;;;22.71;100.00
10881;BME280;5493;48.884;8.338;2023-07-02T06:38:20;99879.09;;;23.02;100.00
10881;BME280;5493;48.884;8.338;2023-07-02T06:40:47;99869.94;;;23.38;100.00
10881;BME280;5493;48.884;8.338;2023-07-02T06:43:13;99870.09;;;23.33;100.00
10881;BME280;5493;48.884;8.338;2023-07-02T06:45:41;99876.56;;;23.50;100.00
10881;BME280;5493;48.884;8.338;2023-07-02T06:48:08;99864.81;;;23.67;100.00
10881;BME280;5493;48.884;8.338;2023-07-02T06:50:35;99872.84;;;23.55;100.00
10881;BME280;5493;48.884;8.338;2023-07-02T06:53:01;99871.72;;;23.95;100.00
10881;BME280;5493;48.884;8.338;2023-07-02T06:55:28;99877.53;;;23.85;100.00
10881;BME280;5493;48.884;8.338;2023-07-02T06:57:55;99874.47;;;24.35;100.00
10881;BME280;5493;48.884;8.338;2023-07-02T07:00:22;99873.03;;;24.46;100.00
10881;BME280;5493;48.884;8.338;2023-07-02T07:02:50;99881.06;;;24.73;100.00
10881;BME280;5493;48.884;8.338;2023-07-02T07:05:16;99877.75;;;24.45;100.00
10881;BME280;5493;48.884;8.338;2023-07-02T07:07:43;99879.94;;;25.09;100.00
10881;BME280;5493;48.884;8.338;2023-07-02T07:10:09;99880.72;;;25.52;100.00
10881;BME280;5493;48.884;8.338;2023-07-02T07:12:36;99881.34;;;25.66;100.00
10881;BME280;5493;48.884;8.338;2023-07-02T07:15:03;99886.16;;;25.78;100.00
10881;BME280;5493;48.884;8.338;2023-07-02T07:17:30;99882.66;;;24.66;100.00
10881;BME280;5493;48.884;8.338;2023-07-02T07:19:58;99885.03;;;24.02;100.00
10881;BME280;5493;48.884;8.338;2023-07-02T07:22:24;99881.53;;;24.67;100.00
10881;BME280;5493;48.884;8.338;2023-07-02T07:24:51;99878.25;;;24.47;100.00
10881;BME280;5493;48.884;8.338;2023-07-02T07:27:17;99879.25;;;25.46;100.00
10881;BME280;5493;48.884;8.338;2023-07-02T07:29:44;99879.69;;;25.65;100.00
10881;BME280;5493;48.884;8.338;2023-07-02T07:32:10;99882.16;;;25.58;100.00
10881;BME280;5493;48.884;8.338;2023-07-02T07:34:37;99889.66;;;25.15;100.00
10881;BME280;5493;48.884;8.338;2023-07-02T07:37:05;99885.75;;;25.33;100.00
10881;BME280;5493;48.884;8.338;2023-07-02T07:39:31;99885.75;;;25.50;100.00
10881;BME280;5493;48.884;8.338;2023-07-02T07:41:58;99888.47;;;25.67;100.00
10881;BME280;5493;48.884;8.338;2023-07-02T07:44:25;99886.75;;;25.20;100.00
10881;BME280;5493;48.884;8.338;2023-07-02T07:46:54;99896.78;;;25.50;100.00
10881;BME280;5493;48.884;8.338;2023-07-02T07:49:20;99874.91;;;25.19;100.00
10881;BME280;5493;48.884;8.338;2023-07-02T07:51:47;99888.03;;;24.79;100.00
10881;BME280;5493;48.884;8.338;2023-07-02T07:54:15;99885.63;;;24.86;100.00
10881;BME280;5493;48.884;8.338;2023-07-02T07:56:42;99883.38;;;24.88;100.00
10881;BME280;5493;48.884;8.338;2023-07-02T07:59:08;99875.56;;;25.16;100.00
10881;BME280;5493;48.884;8.338;2023-07-02T08:01:36;99877.59;;;25.62;100.00
10881;BME280;5493;48.884;8.338;2023-07-02T08:04:03;99884.47;;;25.30;100.00
10881;BME280;5493;48.884;8.338;2023-07-02T08:06:29;99881.72;;;24.87;100.00
10881;BME280;5493;48.884;8.338;2023-07-02T08:08:57;99884.50;;;25.13;100.00
10881;BME280;5493;48.884;8.338;2023-07-02T08:11:24;99874.25;;;25.31;100.00
10881;BME280;5493;48.884;8.338;2023-07-02T08:13:51;99862.00;;;25.66;100.00
10881;BME280;5493;48.884;8.338;2023-07-02T08:16:18;99876.19;;;25.30;100.00
10881;BME280;5493;48.884;8.338;2023-07-02T08:18:44;99875.78;;;25.75;100.00
10881;BME280;5493;48.884;8.338;2023-07-02T08:21:11;99877.78;;;25.40;100.00
10881;BME280;5493;48.884;8.338;2023-07-02T08:23:37;99862.88;;;24.72;100.00
10881;BME280;5493;48.884;8.338;2023-07-02T08:26:04;99861.28;;;24.97;100.00
10881;BME280;5493;48.884;8.338;2023-07-02T08:28:32;99865.00;;;25.18;100.00
10881;BME280;5493;48.884;8.338;2023-07-02T08:30:58;99868.53;;;25.36;100.00
10881;BME280;5493;48.884;8.338;2023-07-02T08:33:25;99867.44;;;25.28;100.00
10881;BME280;5493;48.884;8.338;2023-07-02T08:35:51;99859.19;;;25.03;100.00
10881;BME280;5493;48.884;8.338;2023-07-02T08:38:18;99875.06;;;25.31;100.00
10881;BME280;5493;48.884;8.338;2023-07-02T08:40:44;99876.81;;;25.53;100.00
10881;BME280;5493;48.884;8.338;2023-07-02T08:43:11;99875.63;;;25.71;100.00
10881;BME280;5493;48.884;8.338;2023-07-02T08:45:40;99870.13;;;25.71;100.00
10881;BME280;5493;48.884;8.338;2023-07-02T08:48:07;99876.31;;;25.68;100.00
10881;BME280;5493;48.884;8.338;2023-07-02T08:50:34;99873.16;;;26.25;100.00
10881;BME280;5493;48.884;8.338;2023-07-02T08:53:00;99870.66;;;25.94;100.00
10881;BME280;5493;48.884;8.338;2023-07-02T08:55:27;99862.94;;;25.79;100.00
10881;BME280;5493;48.884;8.338;2023-07-02T08:57:56;99870.13;;;25.71;100.00
10881;BME280;5493;48.884;8.338;2023-07-02T09:00:24;99868.88;;;26.36;100.00
10881;BME280;5493;48.884;8.338;2023-07-02T09:02:52;99868.28;;;26.51;100.00
10881;BME280;5493;48.884;8.338;2023-07-02T09:05:19;99863.63;;;26.64;99.03
10881;BME280;5493;48.884;8.338;2023-07-02T09:07:46;99869.22;;;25.88;99.29
10881;BME280;5493;48.884;8.338;2023-07-02T09:10:25;99878.47;;;26.30;99.95
10881;BME280;5493;48.884;8.338;2023-07-02T09:13:02;99874.31;;;26.15;99.47
10881;BME280;5493;48.884;8.338;2023-07-02T09:15:35;99860.13;;;25.87;100.00
10881;BME280;5493;48.884;8.338;2023-07-02T09:18:14;99874.81;;;26.67;99.51
10881;BME280;5493;48.884;8.338;2023-07-02T09:20:41;99878.06;;;26.11;100.00
10881;BME280;5493;48.884;8.338;2023-07-02T09:23:07;99878.03;;;25.81;98.52
10881;BME280;5493;48.884;8.338;2023-07-02T09:25:38;99874.25;;;25.94;98.39
10881;BME280;5493;48.884;8.338;2023-07-02T09:28:14;99869.69;;;26.86;95.12
10881;BME280;5493;48.884;8.338;2023-07-02T09:30:49;99860.63;;;26.27;94.80
10881;BME280;5493;48.884;8.338;2023-07-02T09:33:17;99866.81;;;26.74;94.60
10881;BME280;5493;48.884;8.338;2023-07-02T09:35:43;99868.72;;;26.82;96.48
10881;BME280;5493;48.884;8.338;2023-07-02T09:38:10;99867.78;;;26.49;97.60
10881;BME280;5493;48.884;8.338;2023-07-02T09:40:44;99862.53;;;26.35;96.49
10881;BME280;5493;48.884;8.338;2023-07-02T09:43:11;99859.44;;;26.87;93.66
10881;BME280;5493;48.884;8.338;2023-07-02T09:45:42;99862.94;;;26.67;95.45
10881;BME280;5493;48.884;8.338;2023-07-02T09:48:11;99859.81;;;26.98;95.76
10881;BME280;5493;48.884;8.338;2023-07-02T09:50:40;99860.56;;;26.86;94.90
10881;BME280;5493;48.884;8.338;2023-07-02T09:53:07;99868.75;;;26.24;96.95
10881;BME280;5493;48.884;8.338;2023-07-02T09:55:33;99846.75;;;25.98;98.34
10881;BME280;5493;48.884;8.338;2023-07-02T09:58:00;99863.72;;;26.17;100.00
10881;BME280;5493;48.884;8.338;2023-07-02T10:00:27;99864.66;;;26.30;96.74
10881;BME280;5493;48.884;8.338;2023-07-02T10:02:53;99857.53;;;26.29;95.46
10881;BME280;5493;48.884;8.338;2023-07-02T10:05:25;99849.78;;;26.43;92.97
10881;BME280;5493;48.884;8.338;2023-07-02T10:07:53;99861.72;;;25.97;94.30
10881;BME280;5493;48.884;8.338;2023-07-02T10:10:28;99855.72;;;26.83;90.01
10881;BME280;5493;48.884;8.338;2023-07-02T10:12:54;99861.84;;;26.88;91.94
10881;BME280;5493;48.884;8.338;2023-07-02T10:15:24;99852.28;;;26.77;89.80
10881;BME280;5493;48.884;8.338;2023-07-02T10:17:55;99854.53;;;27.05;89.04
10881;BME280;5493;48.884;8.338;2023-07-02T10:20:31;99856.75;;;27.11;89.70
10881;BME280;5493;48.884;8.338;2023-07-02T10:23:01;99860.69;;;26.69;92.57
10881;BME280;5493;48.884;8.338;2023-07-02T10:25:28;99855.50;;;27.09;93.35
10881;BME280;5493;48.884;8.338;2023-07-02T10:27:55;99861.34;;;27.40;91.34
10881;BME280;5493;48.884;8.338;2023-07-02T10:30:30;99864.53;;;27.51;90.70
10881;BME280;5493;48.884;8.338;2023-07-02T10:33:07;99844.81;;;27.19;84.61
10881;BME280;5493;48.884;8.338;2023-07-02T10:35:34;99850.34;;;27.64;85.33
10881;BME280;5493;48.884;8.338;2023-07-02T10:38:02;99846.34;;;27.74;82.86
10881;BME280;5493;48.884;8.338;2023-07-02T10:40:29;99848.78;;;27.10;83.44
10881;BME280;5493;48.884;8.338;2023-07-02T10:42:58;99862.56;;;27.51;82.44
10881;BME280;5493;48.884;8.338;2023-07-02T10:45:31;99857.41;;;27.29;83.30
10881;BME280;5493;48.884;8.338;2023-07-02T10:47:58;99851.28;;;27.23;81.46
10881;BME280;5493;48.884;8.338;2023-07-02T10:50:26;99862.66;;;26.89;82.84
10881;BME280;5493;48.884;8.338;2023-07-02T10:52:53;99841.38;;;27.02;79.52
10881;BME280;5493;48.884;8.338;2023-07-02T10:55:22;99845.50;;;27.28;78.10
10881;BME280;5493;48.884;8.338;2023-07-02T10:57:51;99860.34;;;27.12;77.42
10881;BME280;5493;48.884;8.338;2023-07-02T11:00:29;99852.72;;;27.09;77.40
10881;BME280;5493;48.884;8.338;2023-07-02T11:02:55;99841.13;;;27.60;75.79
10881;BME280;5493;48.884;8.338;2023-07-02T11:05:22;99845.75;;;27.23;81.92
10881;BME280;5493;48.884;8.338;2023-07-02T11:07:48;99858.03;;;26.72;82.82
10881;BME280;5493;48.884;8.338;2023-07-02T11:10:23;99853.06;;;26.07;79.27
10881;BME280;5493;48.884;8.338;2023-07-02T11:12:50;99848.84;;;26.39;80.46
10881;BME280;5493;48.884;8.338;2023-07-02T11:15:18;99852.56;;;26.05;81.79
10881;BME280;5493;48.884;8.338;2023-07-02T11:17:44;99848.78;;;25.80;80.68
10881;BME280;5493;48.884;8.338;2023-07-02T11:20:13;99846.94;;;26.31;80.02
10881;BME280;5493;48.884;8.338;2023-07-02T11:22:40;99847.94;;;26.26;81.91
10881;BME280;5493;48.884;8.338;2023-07-02T11:25:11;99846.22;;;26.63;78.14
10881;BME280;5493;48.884;8.338;2023-07-02T11:27:39;99840.25;;;26.32;77.71
10881;BME280;5493;48.884;8.338;2023-07-02T11:30:07;99839.94;;;26.33;79.86
10881;BME280;5493;48.884;8.338;2023-07-02T11:32:46;99844.56;;;26.12;80.46
10881;BME280;5493;48.884;8.338;2023-07-02T11:35:13;99836.75;;;25.85;82.46
10881;BME280;5493;48.884;8.338;2023-07-02T11:37:40;99836.81;;;25.68;79.60
10881;BME280;5493;48.884;8.338;2023-07-02T11:40:08;99828.09;;;25.57;78.30
10881;BME280;5493;48.884;8.338;2023-07-02T11:42:34;99829.44;;;26.68;74.14
10881;BME280;5493;48.884;8.338;2023-07-02T11:45:03;99818.97;;;26.53;73.07
10881;BME280;5493;48.884;8.338;2023-07-02T11:47:29;99827.25;;;26.74;74.53
10881;BME280;5493;48.884;8.338;2023-07-02T11:49:56;99830.75;;;26.21;76.71
10881;BME280;5493;48.884;8.338;2023-07-02T11:52:24;99828.91;;;26.54;72.01
10881;BME280;5493;48.884;8.338;2023-07-02T11:54:50;99822.97;;;26.43;68.95
10881;BME280;5493;48.884;8.338;2023-07-02T11:57:17;99824.22;;;26.25;70.96
10881;BME280;5493;48.884;8.338;2023-07-02T11:59:43;99806.03;;;26.86;69.14
10881;BME280;5493;48.884;8.338;2023-07-02T12:02:11;99804.22;;;27.35;67.41
10881;BME280;5493;48.884;8.338;2023-07-02T12:04:38;99816.44;;;27.55;66.50
10881;BME280;5493;48.884;8.338;2023-07-02T12:07:05;99810.75;;;26.86;64.85
10881;BME280;5493;48.884;8.338;2023-07-02T12:09:31;99808.00;;;26.86;67.29
10881;BME280;5493;48.884;8.338;2023-07-02T12:11:58;99808.56;;;27.45;67.57
10881;BME280;5493;48.884;8.338;2023-07-02T12:14:24;99813.28;;;27.12;61.15
10881;BME280;5493;48.884;8.338;2023-07-02T12:16:51;99806.31;;;27.38;62.44
10881;BME280;5493;48.884;8.338;2023-07-02T12:19:19;99805.69;;;27.54;61.82
10881;BME280;5493;48.884;8.338;2023-07-02T12:21:46;99806.84;;;28.38;62.34
10881;BME280;5493;48.884;8.338;2023-07-02T12:24:12;99803.38;;;28.04;63.89
10881;BME280;5493;48.884;8.338;2023-07-02T12:26:39;99797.53;;;28.70;61.95
10881;BME280;5493;48.884;8.338;2023-07-02T12:29:06;99807.81;;;28.81;58.52
10881;BME280;5493;48.884;8.338;2023-07-02T12:31:32;99811.03;;;27.83;60.79
10881;BME280;5493;48.884;8.338;2023-07-02T12:33:59;99802.16;;;28.14;57.04
10881;BME280;5493;48.884;8.338;2023-07-02T12:36:27;99800.03;;;29.15;56.65
10881;BME280;5493;48.884;8.338;2023-07-02T12:38:54;99796.28;;;28.95;56.52
10881;BME280;5493;48.884;8.338;2023-07-02T12:41:20;99807.66;;;28.38;56.45
10881;BME280;5493;48.884;8.338;2023-07-02T12:43:47;99804.97;;;28.54;56.01
10881;BME280;5493;48.884;8.338;2023-07-02T12:46:13;99809.41;;;27.70;56.27
10881;BME280;5493;48.884;8.338;2023-07-02T12:48:40;99803.88;;;28.06;57.10
10881;BME280;5493;48.884;8.338;2023-07-02T12:51:06;99773.47;;;28.22;55.36
10881;BME280;5493;48.884;8.338;2023-07-02T12:53:34;99792.06;;;27.97;58.14
10881;BME280;5493;48.884;8.338;2023-07-02T12:56:01;99793.91;;;28.29;57.16
10881;BME280;5493;48.884;8.338;2023-07-02T12:58:27;99797.03;;;28.80;57.76
10881;BME280;5493;48.884;8.338;2023-07-02T13:00:54;99801.38;;;29.21;54.87
10881;BME280;5493;48.884;8.338;2023-07-02T13:03:21;99794.13;;;28.49;52.94